Latest Weather Observations for Minlaton Airport

IDS60801

Issued at 7:35 pm CST Friday 18 April 2014 (issued every 30 minutes, with the page automatically refreshed every 10 minutes)

About weather observations | Map of weather stations | Latest weather observations for SA | Other Formats
Station Details ID: 022031 Name: MINLATON AERO Lat: -34.75 Lon: 137.53 Height: 32.0 m
Data from the previous 72 hours. | See also: Recent months at Minlaton Airport
Date/Time
CST
Temp
°C
App
Temp
°C
Dew
Point
Rel
Hum
%
Delta-T
°C
Wind Press
QNH
hPa
Press
MSL
hPa
Rain
since 9 am
mm
Dir
 
Spd
km/h
Gust
km/h
Spd
kts
Gust
kts
18/07:30pm 12.1 7.8 6.8 70 2.5 SE 19 20 10 11 1023.2 - 0.0
18/07:00pm 12.8 8.5 6.8 67 2.9 SE 19 20 10 11 1023.1 - 0.0
18/06:30pm 13.8 9.2 6.7 62 3.4 SE 20 22 11 12 1022.9 - 0.0
18/06:00pm 15.0 10.0 6.6 57 4.1 SE 22 28 12 15 1022.7 1022.7 0.0
18/05:30pm 16.6 10.5 6.7 52 4.9 SE 28 32 15 17 1022.6 - 0.0
18/05:00pm 18.0 12.0 7.1 49 5.5 SSE 28 32 15 17 1022.3 - 0.0
18/04:30pm 18.4 14.0 6.6 46 5.9 S 19 24 10 13 1022.1 - 0.0
18/04:00pm 19.7 15.3 7.4 45 6.3 S 20 33 11 18 1021.9 - 0.0
18/03:30pm 19.7 14.2 5.7 40 6.9 SSW 24 35 13 19 1021.8 - 0.0
18/03:00pm 20.2 15.3 5.1 37 7.4 SW 20 28 11 15 1021.9 1021.9 0.0
18/02:30pm 20.5 15.6 5.3 37 7.5 S 20 28 11 15 1021.9 - 0.0
18/02:00pm 20.9 16.0 5.3 36 7.7 SSW 20 28 11 15 1021.8 - 0.0
18/01:30pm 20.2 14.8 6.5 41 6.9 S 24 32 13 17 1021.8 - 0.0
18/01:00pm 20.1 14.6 5.7 39 7.1 S 24 35 13 19 1022.0 - 0.0
18/12:30pm 19.6 14.4 7.4 45 6.2 S 24 37 13 20 1022.2 - 0.0
18/12:00pm 20.1 14.3 8.1 46 6.2 S 28 46 15 25 1022.4 1022.4 0.0
18/11:39am 20.0 14.3 8.4 47 6.0 SSW 28 46 15 25 1022.4 - 0.0
18/11:30am 20.2 15.6 9.5 50 5.7 SSW 24 35 13 19 1022.5 - 0.0
18/11:00am 20.1 15.3 10.2 53 5.3 SSW 26 37 14 20 1022.5 - 0.0
18/10:30am 18.9 14.3 11.0 60 4.3 S 26 37 14 20 1022.6 - 0.0
18/10:00am 19.1 14.7 11.7 62 4.1 S 26 35 14 19 1022.5 - 0.0
18/09:30am 18.6 13.5 11.9 65 3.7 SSW 30 37 16 20 1022.5 - 0.0
18/09:00am 18.1 13.9 13.6 75 2.5 SSW 28 35 15 19 1022.3 1022.3 0.2
18/08:30am 17.3 14.0 14.0 81 1.9 SSW 24 33 13 18 1022.1 - 0.2
18/08:00am 16.6 14.7 15.1 91 0.9 SSW 19 22 10 12 1021.6 - 0.2
18/07:30am 16.2 12.8 14.7 91 0.9 SSW 26 32 14 17 1021.0 - 0.2
18/07:00am 16.5 13.6 15.0 91 0.9 SW 24 30 13 16 1020.5 - 0.2
18/06:30am 16.6 12.7 15.6 94 0.6 WSW 30 35 16 19 1020.1 - 0.2
18/06:00am 17.7 15.1 15.0 84 1.6 W 22 28 12 15 1019.8 1019.8 0.0
18/05:30am 17.4 14.7 14.7 84 1.6 W 22 26 12 14 1019.7 - 0.0
18/05:00am 17.3 14.2 14.6 84 1.6 W 24 30 13 16 1019.7 - 0.0
18/04:30am 17.2 13.2 14.1 82 1.8 W 28 32 15 17 1019.7 - 0.0
18/04:00am 17.1 13.5 14.2 83 1.7 W 26 32 14 17 1019.6 - 0.0
18/03:30am 16.9 13.5 13.8 82 1.8 W 24 30 13 16 1019.5 - 0.0
18/03:00am 17.0 13.4 14.1 83 1.6 W 26 30 14 16 1019.6 1019.6 0.0
18/02:30am 16.6 13.5 13.5 82 1.7 W 22 28 12 15 1019.6 - 0.0
18/02:00am 17.0 13.7 13.9 82 1.8 WSW 24 30 13 16 1019.6 - 0.0
18/01:30am 16.9 13.5 13.6 81 1.9 W 24 32 13 17 1019.7 - 0.0
18/01:00am 17.5 13.8 14.0 80 2.0 WSW 26 32 14 17 1019.5 - 0.0
18/12:30am 17.5 13.9 14.2 81 1.9 WSW 26 32 14 17 1019.4 - 0.0
18/12:00am 17.4 14.1 14.9 85 1.4 W 26 32 14 17 1019.4 1019.4 0.0
 
Date/Time
CST
Temp
°C
App
Temp
°C
Dew
Point
Rel
Hum
%
Delta-T
°C
Wind Press
QNH
hPa
Press
MSL
hPa
Rain
since 9 am
mm
Dir
 
Spd
km/h
Gust
km/h
Spd
kts
Gust
kts
17/11:30pm 17.6 14.7 15.2 86 1.4 W 24 32 13 17 1019.6 - 0.0
17/11:00pm 17.8 15.9 15.1 84 1.6 W 19 22 10 12 1019.8 - 0.0
17/10:30pm 18.4 15.5 15.1 81 1.9 WNW 24 30 13 16 1019.9 - 0.0
17/10:00pm 17.7 15.2 14.2 80 2.0 WNW 20 24 11 13 1020.1 - 0.0
17/09:30pm 15.7 14.7 13.5 87 1.2 NNW 11 19 6 10 1020.2 - 0.0
17/09:00pm 15.8 15.2 13.6 87 1.2 NNW 9 11 5 6 1020.2 1020.2 0.0
17/08:30pm 15.6 14.6 13.4 87 1.2 NNW 11 15 6 8 1020.0 - 0.0
17/08:00pm 15.1 13.4 12.4 84 1.5 NW 13 13 7 7 1019.8 - 0.0
17/07:30pm 16.2 15.0 12.7 80 1.9 NNW 11 13 6 7 1019.4 - 0.0
17/07:00pm 16.6 16.1 12.6 77 2.2 N 7 7 4 4 1019.1 - 0.0
17/06:30pm 17.5 17.2 13.2 76 2.4 NNW 7 9 4 5 1018.8 - 0.0
17/06:00pm 18.7 18.3 13.1 70 3.2 WNW 7 9 4 5 1018.8 1018.8 0.0
17/05:30pm 20.4 19.8 12.4 60 4.5 WNW 7 9 4 5 1018.8 - 0.0
17/05:00pm 20.9 19.8 10.7 52 5.6 WNW 7 9 4 5 1018.7 - 0.0
17/04:30pm 21.4 20.1 11.4 53 5.6 WNW 9 11 5 6 1018.8 - 0.0
17/04:00pm 21.8 20.6 11.5 52 5.7 NW 9 13 5 7 1019.0 - 0.0
17/03:30pm 22.0 20.0 12.8 56 5.3 NW 15 19 8 10 1019.3 - 0.0
17/03:00pm 21.7 19.1 13.3 59 4.8 WNW 19 24 10 13 1019.5 1019.5 0.0
17/02:30pm 22.1 19.5 13.7 59 4.9 WNW 20 26 11 14 1019.6 - 0.0
17/02:00pm 21.9 19.5 14.3 62 4.5 WNW 20 26 11 14 1019.8 - 0.0
17/01:30pm 21.3 18.6 14.5 65 4.0 WNW 22 26 12 14 1020.1 - 0.0
17/01:00pm 20.8 18.7 14.7 68 3.6 WNW 19 22 10 12 1020.4 - 0.0
17/12:30pm 21.2 19.3 15.3 69 3.5 W 19 24 10 13 1020.9 - 0.0
17/12:00pm 21.0 18.6 13.9 64 4.1 W 19 24 10 13 1021.4 1021.4 0.0
17/11:30am 21.2 19.5 14.6 66 3.9 W 17 24 9 13 1021.5 - 0.0
17/11:00am 20.5 19.4 14.4 68 3.6 W 13 17 7 9 1021.7 - 0.0
17/10:30am 20.1 19.1 14.7 71 3.2 W 13 20 7 11 1021.5 - 0.0
17/10:00am 18.9 17.7 15.0 78 2.3 WNW 15 20 8 11 1021.6 - 0.0
17/09:30am 19.1 18.7 15.2 78 2.3 N 11 17 6 9 1021.5 - 0.0
17/09:00am 18.6 17.9 15.5 82 1.8 N 13 17 7 9 1021.3 1021.3 0.0
17/08:30am 16.9 16.2 16.3 96 0.4 NNE 15 17 8 9 1021.2 - 0.0
17/08:00am 14.7 13.4 14.7 100 0.0 NE 15 17 8 9 1020.9 - 0.0
17/07:30am 12.3 9.8 12.3 100 0.0 NE 17 17 9 9 1020.7 - 0.0
17/07:00am 11.1 8.9 10.9 99 0.1 NE 13 15 7 8 1020.5 - 0.0
17/06:30am 10.8 8.2 10.6 99 0.1 NE 15 17 8 9 1020.3 - 0.0
17/06:00am 11.0 8.4 10.8 99 0.1 NE 15 15 8 8 1020.2 1020.2 0.0
17/05:30am 11.3 9.2 11.1 99 0.1 NE 13 15 7 8 1020.1 - 0.0
17/05:00am 12.1 10.2 11.9 99 0.1 NNE 13 13 7 7 1020.2 - 0.0
17/04:30am 11.3 8.8 11.1 99 0.1 NE 15 15 8 8 1020.0 - 0.0
17/04:00am 11.2 9.4 11.0 99 0.1 NNE 11 13 6 7 1020.0 - 0.0
17/03:30am 11.3 9.5 11.0 98 0.2 NNE 11 13 6 7 1019.9 - 0.0
17/03:00am 11.4 10.1 11.1 98 0.2 NE 9 11 5 6 1019.7 1019.7 0.0
17/02:30am 10.9 9.4 10.4 97 0.3 NNE 9 9 5 5 1019.9 - 0.0
17/02:00am 10.9 9.9 10.3 96 0.3 ENE 6 9 3 5 1020.3 - 0.0
17/01:30am 11.3 9.8 10.7 96 0.3 ENE 9 11 5 6 1020.4 - 0.0
17/01:00am 11.8 10.8 11.0 95 0.4 NE 7 7 4 4 1020.4 - 0.0
17/12:30am 11.3 11.0 10.2 93 0.6 NE 2 7 1 4 1020.4 - 0.0
17/12:00am 11.6 10.1 10.5 93 0.6 ENE 9 11 5 6 1020.5 1020.5 0.0
 
Date/Time
CST
Temp
°C
App
Temp
°C
Dew
Point
Rel
Hum
%
Delta-T
°C
Wind Press
QNH
hPa
Press
MSL
hPa
Rain
since 9 am
mm
Dir
 
Spd
km/h
Gust
km/h
Spd
kts
Gust
kts
16/11:30pm 11.9 11.4 10.6 92 0.7 NE 4 9 2 5 1020.6 - 0.0
16/11:00pm 12.5 11.7 10.9 90 0.8 NE 6 9 3 5 1020.7 - 0.0
16/10:30pm 12.5 11.9 10.4 87 1.1 ENE 4 7 2 4 1020.8 - 0.0
16/10:00pm 13.0 11.2 10.7 86 1.2 ENE 11 13 6 7 1020.9 - 0.0
16/09:30pm 12.0 11.3 9.9 87 1.1 SSE 4 11 2 6 1020.7 - 0.0
16/09:00pm 12.4 11.0 9.6 83 1.4 S 7 9 4 5 1020.6 1020.6 0.0
16/08:30pm 13.8 12.2 10.2 79 1.9 ESE 9 11 5 6 1020.4 - 0.0
16/08:00pm 14.5 12.3 10.9 79 1.9 ESE 13 13 7 7 1020.2 - 0.0
16/07:30pm 15.3 12.5 11.3 77 2.1 SSE 17 17 9 9 1020.2 - 0.0
16/07:00pm 16.2 14.6 11.4 73 2.6 S 11 13 6 7 1019.8 - 0.0
16/06:30pm 17.5 15.1 12.6 73 2.7 WSW 17 19 9 10 1019.5 - 0.0
16/06:00pm 17.5 15.5 11.5 68 3.3 W 13 17 7 9 1019.2 1019.2 0.0
16/05:30pm 19.9 17.7 9.5 51 5.5 W 11 13 6 7 1019.0 - 0.0
16/05:00pm 21.2 18.5 8.8 45 6.6 W 13 19 7 10 1018.7 - 0.0
16/04:30pm 21.6 18.4 8.5 43 6.9 W 15 19 8 10 1018.7 - 0.0
16/04:00pm 21.5 17.9 9.7 47 6.4 W 19 22 10 12 1019.0 - 0.0
16/03:30pm 21.7 19.1 10.8 50 6.0 W 15 20 8 11 1019.0 - 0.0
16/03:00pm 21.7 19.0 11.7 53 5.6 W 17 20 9 11 1019.1 1019.1 0.0
16/02:30pm 21.1 17.9 11.4 54 5.4 WNW 19 24 10 13 1019.0 - 0.0
16/02:00pm 21.4 18.0 13.6 61 4.5 W 24 30 13 16 1019.5 - 0.0
16/01:30pm 21.2 16.7 11.5 54 5.4 W 26 32 14 17 1019.4 - 0.0
16/01:00pm 21.5 18.3 13.2 59 4.8 WNW 22 28 12 15 1019.4 - 0.0
16/12:30pm 21.0 18.1 12.9 60 4.6 NW 20 26 11 14 1019.4 - 0.0
16/12:00pm 21.2 17.7 12.1 56 5.1 NW 22 30 12 16 1020.0 1020.0 0.0
16/11:30am 21.1 17.9 12.0 56 5.1 NW 20 26 11 14 1020.1 - 0.0
16/11:00am 21.0 17.8 11.3 54 5.4 NW 19 24 10 13 1020.1 - 0.0
16/10:30am 20.3 17.5 11.5 57 4.9 NW 17 22 9 12 1020.7 - 0.0
16/10:00am 19.9 16.8 10.3 54 5.2 NNW 17 20 9 11 1020.8 - 0.0
16/09:30am 19.4 15.7 9.3 52 5.3 NNW 19 20 10 11 1020.9 - 0.0
16/09:00am 19.0 15.8 10.0 56 4.8 N 17 19 9 10 1020.7 1020.7 0.0
16/08:30am 17.5 14.9 10.6 64 3.7 N 15 19 8 10 1020.3 - 0.0
16/08:00am 15.6 12.6 10.8 73 2.6 NE 17 20 9 11 1020.2 - 0.0
16/07:30am 13.0 9.2 9.8 81 1.6 NE 20 22 11 12 1020.0 - 0.0
16/07:00am 11.9 8.0 9.5 85 1.2 NE 20 22 11 12 1019.9 - 0.0
16/06:30am 11.7 8.2 10.1 90 0.8 ENE 19 22 10 12 1019.8 - 0.0
16/06:00am 12.3 8.7 10.5 89 0.9 ENE 20 24 11 13 1019.8 1019.8 0.0
16/05:30am 12.2 8.6 10.6 90 0.8 ENE 20 24 11 13 1020.0 - 0.0
16/05:00am 11.7 8.3 10.4 92 0.7 ENE 19 20 10 11 1020.0 - 0.0
16/04:30am 11.9 8.3 10.6 92 0.7 ENE 20 22 11 12 1019.7 - 0.0
16/04:00am 11.9 8.3 10.6 92 0.7 E 20 22 11 12 1019.7 - 0.0
16/03:30am 12.1 8.8 10.8 92 0.7 ENE 19 20 10 11 1019.9 - 0.0
16/03:00am 12.2 8.8 11.1 93 0.6 ENE 20 22 11 12 1019.9 1019.9 0.0
16/02:30am 12.0 8.1 10.9 93 0.6 E 22 22 12 12 1020.4 - 0.0
16/02:00am 12.5 8.8 11.4 93 0.6 E 22 22 12 12 1020.8 - 0.0
16/01:30am 12.7 9.4 11.6 93 0.6 E 20 22 11 12 1021.0 - 0.0
16/01:00am 13.1 9.5 11.8 92 0.7 E 22 24 12 13 1021.1 - 0.0
16/12:30am 12.8 9.1 11.5 92 0.7 E 22 26 12 14 1021.2 - 0.0
16/12:00am 12.8 9.4 11.2 90 0.8 E 20 22 11 12 1021.5 1021.5 0.0
 
Date/Time
CST
Temp
°C
App
Temp
°C
Dew
Point
Rel
Hum
%
Delta-T
°C
Wind Press
QNH
hPa
Press
MSL
hPa
Rain
since 9 am
mm
Dir
 
Spd
km/h
Gust
km/h
Spd
kts
Gust
kts
15/11:30pm 12.3 8.6 10.2 87 1.1 E 20 26 11 14 1021.6 - 0.0
15/11:00pm 12.8 9.2 10.7 87 1.1 E 20 22 11 12 1021.5 - 0.0
15/10:30pm 13.3 9.7 10.7 84 1.4 E 20 24 11 13 1021.7 - 0.0
15/10:00pm 13.3 10.2 10.3 82 1.6 ESE 17 20 9 11 1021.9 - 0.0
15/09:30pm 13.6 9.5 10.0 79 1.9 E 22 24 12 13 1021.8 - 0.0
15/09:00pm 12.8 9.4 10.5 86 1.2 ESE 19 19 10 10 1022.1 1022.1 0.0
15/08:30pm 11.8 10.0 9.4 85 1.2 S 9 9 5 5 1022.1 - 0.0
15/08:00pm 12.3 10.8 9.1 81 1.6 S 7 9 4 5 1022.0 - 0.0

Other Formats:

Comma delimited format used in spreadsheet applications
http://www.bom.gov.au/fwo/IDS60801/IDS60801.95659.axf

JavaScript Object Notation format (JSON) in row-major order
http://www.bom.gov.au/fwo/IDS60801/IDS60801.95659.json